METAR AND TAF INFORMATION
METAR FOR SKBO
ADDS - METARS form results

(2336 UTC 20 April 2018)
Data provider http://aviationweather.gov/adds/metars/
 
METAR text: SKBO 202300Z 03006KT 9999 FEW020 SCT200 14/09 A3031
Conditions at: SKBO (BOGOTA/ELDORADO , CO) observed 2300 UTC 20 April 2018
Temperature: 14.0°C (57°F)
Dewpoint: 9.0°C (48°F) [RH = 72%]
Pressure (altimeter): 30.31 inches Hg (1026.5 mb)
Winds: from the NNE (30 degrees) at 7 MPH (6 knots; 3.1 m/s)
Visibility: 6 or more miles (10+ km)
Ceiling: at least 12,000 feet AGL
Clouds: few clouds at 2000 feet AGL
scattered clouds at 20000 feet AGL
Weather: no significant weather observed at this time

Forecast for: SKBO (BOGOTA/ELDORADO , CO)
Text: TAF SKBO 202300Z 2100/2124 07005KT 9999 SCT017 BKN080
Forecast period: 0000 to 1400 UTC 21 April 2018
Forecast type: FROM: standard forecast or significant change
Winds: from the ENE (70 degrees) at 6 MPH (5 knots; 2.6 m/s)
Visibility: 6 or more miles (10+ km)
Ceiling: 8000 feet AGL
Clouds: scattered clouds at 1700 feet AGL
broken clouds at 8000 feet AGL
Weather: no significant weather forecast for this period
Forecast for: SKBO (BOGOTA/ELDORADO , CO)
Text: TAF SKBO 202300Z 2100/2124 07005KT 9999 SCT017 BKN080
Forecast period: 0000 to 1400 UTC 21 April 2018
Forecast type: FROM: standard forecast or significant change
Winds: from the ENE (70 degrees) at 6 MPH (5 knots; 2.6 m/s)
Visibility: 6 or more miles (10+ km)
Ceiling: 8000 feet AGL
Clouds: scattered clouds at 1700 feet AGL
broken clouds at 8000 feet AGL
Weather: no significant weather forecast for this period
Forecast for: SKBO (BOGOTA/ELDORADO , CO)
Text: TAF SKBO 202300Z 2100/2124 07005KT 9999 SCT017 BKN080
Forecast period: 0200 to 0500 UTC 21 April 2018
Forecast type: PROBABLE: 40 percent likelihood of the following during this time
Visibility: 5 miles (8 km)
Ceiling: 1500 feet AGL
Clouds: broken clouds at 1500 feet AGL
Weather: DZ  (drizzle)
Forecast for: SKBO (BOGOTA/ELDORADO , CO)
Text: TAF SKBO 202300Z 2100/2124 07005KT 9999 SCT017 BKN080
Forecast period: 0200 to 0500 UTC 21 April 2018
Forecast type: PROBABLE: 40 percent likelihood of the following during this time
Visibility: 5 miles (8 km)
Ceiling: 1500 feet AGL
Clouds: broken clouds at 1500 feet AGL
Weather: DZ  (drizzle)
Forecast for: SKBO (BOGOTA/ELDORADO , CO)
Text: TAF SKBO 202300Z 2100/2124 07005KT 9999 SCT017 BKN080
Forecast period: 1400 UTC 21 April 2018 to 0000 UTC 22 April 2018
Forecast type: BECOMING: Conditions expected to become as follows by 1600 UTC 21 April 2018
Winds: from the SE (140 degrees) at 14 MPH (12 knots; 6.2 m/s)
Visibility: 6 or more miles (10+ km)
Ceiling: 8000 feet AGL
Clouds: scattered clouds at 1700 feet AGL
broken clouds at 8000 feet AGL
Weather: no significant weather forecast for this period
Forecast for: SKBO (BOGOTA/ELDORADO , CO)
Text: TAF SKBO 202300Z 2100/2124 07005KT 9999 SCT017 BKN080
Forecast period: 1400 UTC 21 April 2018 to 0000 UTC 22 April 2018
Forecast type: BECOMING: Conditions expected to become as follows by 1600 UTC 21 April 2018
Winds: from the SE (140 degrees) at 14 MPH (12 knots; 6.2 m/s)
Visibility: 6 or more miles (10+ km)
Ceiling: 8000 feet AGL
Clouds: scattered clouds at 1700 feet AGL
broken clouds at 8000 feet AGL
Weather: no significant weather forecast for this period
Forecast for: SKBO (BOGOTA/ELDORADO , CO)
Text: TAF SKBO 202300Z 2100/2124 07005KT 9999 SCT017 BKN080
Forecast period: 1900 to 2200 UTC 21 April 2018
Forecast type: TEMPORARY: The following changes expected for less than half the time period
Visibility: 5 miles (8 km)
Ceiling: 1700 feet AGL
Clouds: scattered clouds at 1500 feet AGL
broken clouds at 1700 feet AGL
Weather: DZ RA  (drizzle, rain)
Forecast for: SKBO (BOGOTA/ELDORADO , CO)
Text: TAF SKBO 202300Z 2100/2124 07005KT 9999 SCT017 BKN080
Forecast period: 1900 to 2200 UTC 21 April 2018
Forecast type: TEMPORARY: The following changes expected for less than half the time period
Visibility: 5 miles (8 km)
Ceiling: 1700 feet AGL
Clouds: scattered clouds at 1500 feet AGL
broken clouds at 1700 feet AGL
Weather: DZ RA  (drizzle, rain)

 AIRPORT MAP

 RUNWAY INFORMATION
Runway 13L Runway length 12467 ft Runway width 148 ft
Runway elevation 8354 ft Runway displaced threshold 0 ft Runway heading 127
Runway 31R Runway length 12467 ft Runway width 148 ft
Runway elevation 8354 ft Runway displaced threshold 0 ft Runway heading 307
Runway 13R Runway length 12467 ft Runway width 148 ft
Runway elevation 8350 ft Runway displaced threshold 0 ft Runway heading 127
Runway 31L Runway length 12467 ft Runway width 148 ft
Runway elevation 8355 ft Runway displaced threshold 0 ft Runway heading 307

 AIRPORT FREQUENCIES
Type APP Name BOGOTA APP Frequency 119.5 MHZ
Type ATIS Name ATIS Frequency 113.9 MHZ
Type DEP Name BOGOTA DEP Frequency 119.5 MHZ
Type INFO Name BOGOTA FIS Frequency 126.9 MHZ
Type OPS Name MILGP RDO Frequency 1395 MHZ
Type RDO Name BOGOTA RDO Frequency 348.8 MHZ

 AIRPORT NEAR NAVIGATION AIDS
Type VOR-DME Name Bogota Frequency 113900 KHZ
Type NDB Name Bogota Frequency 340 KHZ
Type NDB Name Delta Romeo Frequency 264 KHZ
Type NDB Name Romeo Frequency 274 KHZ
Type NDB Name Techo Frequency 284 KHZ
Type VOR-DME Name Zipaquira Frequency 114700 KHZ



v2.6.1